sensor_id;sensor_type;location;lat;lon;timestamp;temperature;humidity
25360;DHT22;13311;51.386;0.016;2023-07-20T00:02:15;21.70;77.70
25360;DHT22;13311;51.386;0.016;2023-07-20T00:07:16;21.60;78.10
25360;DHT22;13311;51.386;0.016;2023-07-20T00:12:16;21.60;78.50
25360;DHT22;13311;51.386;0.016;2023-07-20T00:17:17;21.50;78.70
25360;DHT22;13311;51.386;0.016;2023-07-20T00:22:18;21.50;79.10
25360;DHT22;13311;51.386;0.016;2023-07-20T00:27:18;21.40;79.60
25360;DHT22;13311;51.386;0.016;2023-07-20T00:32:19;21.30;79.80
25360;DHT22;13311;51.386;0.016;2023-07-20T00:37:20;21.30;80.20
25360;DHT22;13311;51.386;0.016;2023-07-20T00:42:21;21.20;80.80
25360;DHT22;13311;51.386;0.016;2023-07-20T00:47:22;21.10;81.90
25360;DHT22;13311;51.386;0.016;2023-07-20T00:52:23;21.10;82.30
25360;DHT22;13311;51.386;0.016;2023-07-20T00:57:25;21.10;82.60
25360;DHT22;13311;51.386;0.016;2023-07-20T01:02:27;21.00;82.90
25360;DHT22;13311;51.386;0.016;2023-07-20T01:08:00;20.90;83.40
25360;DHT22;13311;51.386;0.016;2023-07-20T01:13:07;20.80;83.60
25360;DHT22;13311;51.386;0.016;2023-07-20T01:18:10;20.70;82.90
25360;DHT22;13311;51.386;0.016;2023-07-20T01:23:55;20.60;83.70
25360;DHT22;13311;51.386;0.016;2023-07-20T01:35:08;20.40;84.90
25360;DHT22;13311;51.386;0.016;2023-07-20T01:40:11;20.30;85.40
25360;DHT22;13311;51.386;0.016;2023-07-20T01:45:14;20.30;85.70
25360;DHT22;13311;51.386;0.016;2023-07-20T01:50:15;20.20;86.00
25360;DHT22;13311;51.386;0.016;2023-07-20T01:55:15;20.20;86.30
25360;DHT22;13311;51.386;0.016;2023-07-20T02:00:16;20.10;86.10
25360;DHT22;13311;51.386;0.016;2023-07-20T02:05:19;19.90;86.30
25360;DHT22;13311;51.386;0.016;2023-07-20T02:10:20;19.90;86.60
25360;DHT22;13311;51.386;0.016;2023-07-20T02:15:20;19.80;87.10
25360;DHT22;13311;51.386;0.016;2023-07-20T02:20:22;19.80;87.00
25360;DHT22;13311;51.386;0.016;2023-07-20T02:25:23;19.70;87.00
25360;DHT22;13311;51.386;0.016;2023-07-20T02:30:23;19.70;87.60
25360;DHT22;13311;51.386;0.016;2023-07-20T02:35:24;19.60;87.80
25360;DHT22;13311;51.386;0.016;2023-07-20T02:40:25;19.60;88.60
25360;DHT22;13311;51.386;0.016;2023-07-20T02:45:27;19.60;88.40
25360;DHT22;13311;51.386;0.016;2023-07-20T02:50:27;19.50;88.60
25360;DHT22;13311;51.386;0.016;2023-07-20T02:55:28;19.50;89.00
25360;DHT22;13311;51.386;0.016;2023-07-20T03:00:29;19.50;89.00
25360;DHT22;13311;51.386;0.016;2023-07-20T03:05:29;19.50;89.10
25360;DHT22;13311;51.386;0.016;2023-07-20T03:10:30;19.50;89.00
25360;DHT22;13311;51.386;0.016;2023-07-20T03:15:31;19.50;88.80
25360;DHT22;13311;51.386;0.016;2023-07-20T03:20:31;19.50;88.80
25360;DHT22;13311;51.386;0.016;2023-07-20T03:25:32;19.40;89.10
25360;DHT22;13311;51.386;0.016;2023-07-20T03:30:34;19.40;89.40
25360;DHT22;13311;51.386;0.016;2023-07-20T03:35:35;19.40;88.90
25360;DHT22;13311;51.386;0.016;2023-07-20T03:40:36;19.40;88.80
25360;DHT22;13311;51.386;0.016;2023-07-20T03:45:37;19.30;89.20
25360;DHT22;13311;51.386;0.016;2023-07-20T03:50:38;19.30;89.30
25360;DHT22;13311;51.386;0.016;2023-07-20T03:55:38;19.20;89.50
25360;DHT22;13311;51.386;0.016;2023-07-20T04:00:50;19.20;89.90
25360;DHT22;13311;51.386;0.016;2023-07-20T04:05:54;19.20;89.90
25360;DHT22;13311;51.386;0.016;2023-07-20T04:10:57;19.20;90.00
25360;DHT22;13311;51.386;0.016;2023-07-20T04:15:58;19.20;90.00
25360;DHT22;13311;51.386;0.016;2023-07-20T04:20:59;19.00;90.00
25360;DHT22;13311;51.386;0.016;2023-07-20T04:25:59;18.90;90.20
25360;DHT22;13311;51.386;0.016;2023-07-20T04:31:10;18.80;90.40
25360;DHT22;13311;51.386;0.016;2023-07-20T04:36:14;18.70;90.60
25360;DHT22;13311;51.386;0.016;2023-07-20T04:41:16;18.70;90.60
25360;DHT22;13311;51.386;0.016;2023-07-20T04:46:17;18.70;90.60
25360;DHT22;13311;51.386;0.016;2023-07-20T04:51:19;18.70;90.60
25360;DHT22;13311;51.386;0.016;2023-07-20T04:56:21;18.70;90.80
25360;DHT22;13311;51.386;0.016;2023-07-20T05:01:23;18.70;90.70
25360;DHT22;13311;51.386;0.016;2023-07-20T05:06:24;18.70;90.70
25360;DHT22;13311;51.386;0.016;2023-07-20T05:11:25;18.80;90.60
25360;DHT22;13311;51.386;0.016;2023-07-20T05:16:25;18.80;90.50
25360;DHT22;13311;51.386;0.016;2023-07-20T05:21:26;18.80;90.60
25360;DHT22;13311;51.386;0.016;2023-07-20T05:26:27;18.80;90.70
25360;DHT22;13311;51.386;0.016;2023-07-20T05:31:27;19.10;91.20
25360;DHT22;13311;51.386;0.016;2023-07-20T05:36:30;19.60;90.80
25360;DHT22;13311;51.386;0.016;2023-07-20T05:41:31;20.50;88.40
25360;DHT22;13311;51.386;0.016;2023-07-20T05:46:32;21.40;86.00
25360;DHT22;13311;51.386;0.016;2023-07-20T05:51:32;22.30;83.80
25360;DHT22;13311;51.386;0.016;2023-07-20T05:56:33;23.40;80.60
25360;DHT22;13311;51.386;0.016;2023-07-20T06:01:34;24.30;78.10
25360;DHT22;13311;51.386;0.016;2023-07-20T06:06:34;25.10;74.20
25360;DHT22;13311;51.386;0.016;2023-07-20T06:11:35;25.90;71.90
25360;DHT22;13311;51.386;0.016;2023-07-20T06:16:36;26.40;69.40
25360;DHT22;13311;51.386;0.016;2023-07-20T06:21:38;26.80;67.50
25360;DHT22;13311;51.386;0.016;2023-07-20T06:26:39;27.20;65.50
25360;DHT22;13311;51.386;0.016;2023-07-20T06:31:40;27.50;64.70
25360;DHT22;13311;51.386;0.016;2023-07-20T06:36:41;27.90;63.70
25360;DHT22;13311;51.386;0.016;2023-07-20T06:41:41;28.40;61.60
25360;DHT22;13311;51.386;0.016;2023-07-20T06:46:42;28.70;60.40
25360;DHT22;13311;51.386;0.016;2023-07-20T06:51:43;28.60;60.10
25360;DHT22;13311;51.386;0.016;2023-07-20T06:56:43;28.20;59.70
25360;DHT22;13311;51.386;0.016;2023-07-20T07:01:44;27.80;60.30
25360;DHT22;13311;51.386;0.016;2023-07-20T07:06:45;27.30;60.50
25360;DHT22;13311;51.386;0.016;2023-07-20T07:11:45;26.60;61.00
25360;DHT22;13311;51.386;0.016;2023-07-20T07:16:47;26.10;63.00
25360;DHT22;13311;51.386;0.016;2023-07-20T07:21:48;25.90;63.90
25360;DHT22;13311;51.386;0.016;2023-07-20T07:26:49;26.00;63.90
25360;DHT22;13311;51.386;0.016;2023-07-20T07:31:49;26.70;63.40
25360;DHT22;13311;51.386;0.016;2023-07-20T07:36:50;27.10;61.70
25360;DHT22;13311;51.386;0.016;2023-07-20T07:41:51;27.20;60.70
25360;DHT22;13311;51.386;0.016;2023-07-20T07:46:52;27.30;60.70
25360;DHT22;13311;51.386;0.016;2023-07-20T07:51:53;27.60;60.40
25360;DHT22;13311;51.386;0.016;2023-07-20T07:56:54;27.70;59.40
25360;DHT22;13311;51.386;0.016;2023-07-20T08:01:54;27.80;59.50
25360;DHT22;13311;51.386;0.016;2023-07-20T08:06:55;27.70;58.50
25360;DHT22;13311;51.386;0.016;2023-07-20T08:11:56;27.50;59.00
25360;DHT22;13311;51.386;0.016;2023-07-20T08:16:57;27.50;59.40
25360;DHT22;13311;51.386;0.016;2023-07-20T08:21:58;27.60;58.50
25360;DHT22;13311;51.386;0.016;2023-07-20T08:26:59;27.50;58.80
25360;DHT22;13311;51.386;0.016;2023-07-20T08:32:00;27.30;58.00
25360;DHT22;13311;51.386;0.016;2023-07-20T08:37:00;27.30;58.10
25360;DHT22;13311;51.386;0.016;2023-07-20T08:42:01;27.70;58.80
25360;DHT22;13311;51.386;0.016;2023-07-20T08:47:06;27.90;57.30
25360;DHT22;13311;51.386;0.016;2023-07-20T08:52:07;28.20;58.60
25360;DHT22;13311;51.386;0.016;2023-07-20T08:57:13;28.20;56.60
25360;DHT22;13311;51.386;0.016;2023-07-20T09:02:16;28.20;57.00
25360;DHT22;13311;51.386;0.016;2023-07-20T09:07:19;28.00;56.60
25360;DHT22;13311;51.386;0.016;2023-07-20T09:12:20;28.00;57.70
25360;DHT22;13311;51.386;0.016;2023-07-20T09:17:25;28.00;56.90
25360;DHT22;13311;51.386;0.016;2023-07-20T09:22:30;27.90;55.10
25360;DHT22;13311;51.386;0.016;2023-07-20T09:27:42;28.20;57.20
25360;DHT22;13311;51.386;0.016;2023-07-20T09:32:48;28.30;55.20
25360;DHT22;13311;51.386;0.016;2023-07-20T09:38:00;28.30;54.10
25360;DHT22;13311;51.386;0.016;2023-07-20T09:43:01;28.40;58.30
25360;DHT22;13311;51.386;0.016;2023-07-20T09:48:08;28.40;57.40
25360;DHT22;13311;51.386;0.016;2023-07-20T09:53:13;28.30;55.00
25360;DHT22;13311;51.386;0.016;2023-07-20T09:58:15;28.30;55.00
25360;DHT22;13311;51.386;0.016;2023-07-20T10:03:21;28.20;52.50
25360;DHT22;13311;51.386;0.016;2023-07-20T10:08:24;28.00;53.70
25360;DHT22;13311;51.386;0.016;2023-07-20T10:13:27;28.00;54.70
25360;DHT22;13311;51.386;0.016;2023-07-20T10:18:34;28.00;53.30
25360;DHT22;13311;51.386;0.016;2023-07-20T10:23:49;28.10;52.50
25360;DHT22;13311;51.386;0.016;2023-07-20T10:28:50;28.40;57.70
25360;DHT22;13311;51.386;0.016;2023-07-20T10:33:51;28.80;53.40
25360;DHT22;13311;51.386;0.016;2023-07-20T10:38:53;29.20;52.10
25360;DHT22;13311;51.386;0.016;2023-07-20T10:44:01;29.40;50.90
25360;DHT22;13311;51.386;0.016;2023-07-20T10:49:05;29.30;49.50
25360;DHT22;13311;51.386;0.016;2023-07-20T10:59:37;29.00;50.60
25360;DHT22;13311;51.386;0.016;2023-07-20T11:04:42;28.50;49.10
25360;DHT22;13311;51.386;0.016;2023-07-20T11:09:44;28.20;48.50
25360;DHT22;13311;51.386;0.016;2023-07-20T11:14:57;28.50;50.70
25360;DHT22;13311;51.386;0.016;2023-07-20T11:20:02;28.90;53.90
25360;DHT22;13311;51.386;0.016;2023-07-20T11:25:03;29.20;53.50
25360;DHT22;13311;51.386;0.016;2023-07-20T11:30:15;29.40;53.90
25360;DHT22;13311;51.386;0.016;2023-07-20T11:35:16;29.80;54.50
25360;DHT22;13311;51.386;0.016;2023-07-20T11:40:17;30.00;55.80
25360;DHT22;13311;51.386;0.016;2023-07-20T11:45:19;29.90;45.90
25360;DHT22;13311;51.386;0.016;2023-07-20T11:50:20;29.90;53.50
25360;DHT22;13311;51.386;0.016;2023-07-20T11:55:21;30.00;48.50
25360;DHT22;13311;51.386;0.016;2023-07-20T12:00:24;29.80;48.80
25360;DHT22;13311;51.386;0.016;2023-07-20T12:05:25;29.80;54.90
25360;DHT22;13311;51.386;0.016;2023-07-20T12:10:29;29.70;51.00
25360;DHT22;13311;51.386;0.016;2023-07-20T12:15:30;29.80;46.00
25360;DHT22;13311;51.386;0.016;2023-07-20T12:20:34;30.10;48.10
25360;DHT22;13311;51.386;0.016;2023-07-20T12:25:40;30.20;50.90
25360;DHT22;13311;51.386;0.016;2023-07-20T12:30:43;30.10;45.90
25360;DHT22;13311;51.386;0.016;2023-07-20T12:35:44;30.00;53.00
25360;DHT22;13311;51.386;0.016;2023-07-20T12:40:45;30.10;54.10
25360;DHT22;13311;51.386;0.016;2023-07-20T12:45:46;30.10;45.20
25360;DHT22;13311;51.386;0.016;2023-07-20T12:50:47;30.30;53.20
25360;DHT22;13311;51.386;0.016;2023-07-20T12:55:48;30.40;45.90
25360;DHT22;13311;51.386;0.016;2023-07-20T13:00:48;30.50;50.50
25360;DHT22;13311;51.386;0.016;2023-07-20T13:05:49;30.30;50.30
25360;DHT22;13311;51.386;0.016;2023-07-20T13:10:51;30.20;50.30
25360;DHT22;13311;51.386;0.016;2023-07-20T13:15:52;29.80;43.70
25360;DHT22;13311;51.386;0.016;2023-07-20T13:20:53;29.80;46.30
25360;DHT22;13311;51.386;0.016;2023-07-20T13:25:54;29.90;49.10
25360;DHT22;13311;51.386;0.016;2023-07-20T13:30:55;30.10;47.90
25360;DHT22;13311;51.386;0.016;2023-07-20T13:35:56;30.20;48.60
25360;DHT22;13311;51.386;0.016;2023-07-20T13:40:56;30.20;44.30
25360;DHT22;13311;51.386;0.016;2023-07-20T13:45:57;29.90;42.50
25360;DHT22;13311;51.386;0.016;2023-07-20T13:50:58;29.60;42.00
25360;DHT22;13311;51.386;0.016;2023-07-20T13:55:59;29.80;43.90
25360;DHT22;13311;51.386;0.016;2023-07-20T14:00:59;30.00;44.80
25360;DHT22;13311;51.386;0.016;2023-07-20T14:06:00;29.90;41.70
25360;DHT22;13311;51.386;0.016;2023-07-20T14:11:01;29.90;49.30
25360;DHT22;13311;51.386;0.016;2023-07-20T14:16:01;30.00;46.80
25360;DHT22;13311;51.386;0.016;2023-07-20T14:21:02;29.90;46.70
25360;DHT22;13311;51.386;0.016;2023-07-20T14:26:04;30.10;48.10
25360;DHT22;13311;51.386;0.016;2023-07-20T14:31:06;30.10;43.10
25360;DHT22;13311;51.386;0.016;2023-07-20T14:36:06;30.00;41.90
25360;DHT22;13311;51.386;0.016;2023-07-20T14:41:07;29.70;42.10
25360;DHT22;13311;51.386;0.016;2023-07-20T14:46:08;29.60;43.90
25360;DHT22;13311;51.386;0.016;2023-07-20T14:51:08;29.10;41.50
25360;DHT22;13311;51.386;0.016;2023-07-20T14:56:09;29.10;42.80
25360;DHT22;13311;51.386;0.016;2023-07-20T15:01:10;29.00;41.70
25360;DHT22;13311;51.386;0.016;2023-07-20T15:06:11;29.10;43.20
25360;DHT22;13311;51.386;0.016;2023-07-20T15:11:12;29.00;42.30
25360;DHT22;13311;51.386;0.016;2023-07-20T15:16:13;29.00;42.50
25360;DHT22;13311;51.386;0.016;2023-07-20T15:21:14;29.10;44.10
25360;DHT22;13311;51.386;0.016;2023-07-20T15:26:18;29.00;43.60
25360;DHT22;13311;51.386;0.016;2023-07-20T15:31:18;28.80;41.30
25360;DHT22;13311;51.386;0.016;2023-07-20T15:36:19;28.70;41.60
25360;DHT22;13311;51.386;0.016;2023-07-20T15:41:20;28.40;42.10
25360;DHT22;13311;51.386;0.016;2023-07-20T15:51:40;27.60;43.00
25360;DHT22;13311;51.386;0.016;2023-07-20T15:56:43;27.80;43.80
25360;DHT22;13311;51.386;0.016;2023-07-20T16:01:44;28.20;42.70
25360;DHT22;13311;51.386;0.016;2023-07-20T16:06:45;28.30;40.50
25360;DHT22;13311;51.386;0.016;2023-07-20T16:11:46;28.20;40.10
25360;DHT22;13311;51.386;0.016;2023-07-20T16:16:47;28.30;40.50
25360;DHT22;13311;51.386;0.016;2023-07-20T16:21:47;28.20;39.70
25360;DHT22;13311;51.386;0.016;2023-07-20T16:26:48;28.20;41.20
25360;DHT22;13311;51.386;0.016;2023-07-20T16:31:49;28.20;41.70
25360;DHT22;13311;51.386;0.016;2023-07-20T16:36:50;28.40;41.60
25360;DHT22;13311;51.386;0.016;2023-07-20T16:41:51;28.50;43.20
25360;DHT22;13311;51.386;0.016;2023-07-20T16:46:52;28.70;43.50
25360;DHT22;13311;51.386;0.016;2023-07-20T16:51:52;28.70;42.10
25360;DHT22;13311;51.386;0.016;2023-07-20T16:56:53;28.50;40.70
25360;DHT22;13311;51.386;0.016;2023-07-20T17:01:54;28.40;41.70
25360;DHT22;13311;51.386;0.016;2023-07-20T17:06:54;28.30;40.20
25360;DHT22;13311;51.386;0.016;2023-07-20T17:11:55;28.00;42.50
25360;DHT22;13311;51.386;0.016;2023-07-20T17:16:56;27.80;42.50
25360;DHT22;13311;51.386;0.016;2023-07-20T17:21:56;27.70;42.60
25360;DHT22;13311;51.386;0.016;2023-07-20T17:26:58;27.80;42.60
25360;DHT22;13311;51.386;0.016;2023-07-20T17:31:58;27.70;42.40
25360;DHT22;13311;51.386;0.016;2023-07-20T17:36:59;27.60;42.90
25360;DHT22;13311;51.386;0.016;2023-07-20T17:42:00;27.70;44.70
25360;DHT22;13311;51.386;0.016;2023-07-20T17:47:00;27.60;44.50
25360;DHT22;13311;51.386;0.016;2023-07-20T17:52:01;27.50;44.50
25360;DHT22;13311;51.386;0.016;2023-07-20T17:57:03;27.40;44.80
25360;DHT22;13311;51.386;0.016;2023-07-20T18:02:05;27.40;44.80
25360;DHT22;13311;51.386;0.016;2023-07-20T18:07:06;27.30;45.10
25360;DHT22;13311;51.386;0.016;2023-07-20T18:12:07;27.30;47.10
25360;DHT22;13311;51.386;0.016;2023-07-20T18:17:08;27.30;46.60
25360;DHT22;13311;51.386;0.016;2023-07-20T18:22:08;27.30;50.20
25360;DHT22;13311;51.386;0.016;2023-07-20T18:27:09;27.30;48.40
25360;DHT22;13311;51.386;0.016;2023-07-20T18:32:10;27.20;46.00
25360;DHT22;13311;51.386;0.016;2023-07-20T18:37:11;27.20;49.60
25360;DHT22;13311;51.386;0.016;2023-07-20T18:42:12;27.20;47.80
25360;DHT22;13311;51.386;0.016;2023-07-20T18:47:13;27.00;46.00
25360;DHT22;13311;51.386;0.016;2023-07-20T18:52:14;27.10;49.00
25360;DHT22;13311;51.386;0.016;2023-07-20T18:57:14;27.00;48.00
25360;DHT22;13311;51.386;0.016;2023-07-20T19:02:15;27.10;51.10
25360;DHT22;13311;51.386;0.016;2023-07-20T19:07:16;27.00;48.80
25360;DHT22;13311;51.386;0.016;2023-07-20T19:12:17;26.90;48.80
25360;DHT22;13311;51.386;0.016;2023-07-20T19:17:17;26.60;48.90
25360;DHT22;13311;51.386;0.016;2023-07-20T19:22:20;26.60;49.60
25360;DHT22;13311;51.386;0.016;2023-07-20T19:27:21;26.50;50.30
25360;DHT22;13311;51.386;0.016;2023-07-20T19:32:22;26.50;49.90
25360;DHT22;13311;51.386;0.016;2023-07-20T19:37:23;26.30;50.40
25360;DHT22;13311;51.386;0.016;2023-07-20T19:42:23;26.40;51.00
25360;DHT22;13311;51.386;0.016;2023-07-20T19:47:24;26.10;50.20
25360;DHT22;13311;51.386;0.016;2023-07-20T19:52:25;26.00;52.00
25360;DHT22;13311;51.386;0.016;2023-07-20T19:57:25;25.90;50.80
25360;DHT22;13311;51.386;0.016;2023-07-20T20:02:26;25.80;53.30
25360;DHT22;13311;51.386;0.016;2023-07-20T20:07:27;25.60;51.30
25360;DHT22;13311;51.386;0.016;2023-07-20T20:12:27;25.70;53.40
25360;DHT22;13311;51.386;0.016;2023-07-20T20:17:28;25.60;53.00
25360;DHT22;13311;51.386;0.016;2023-07-20T20:22:29;25.70;53.50
25360;DHT22;13311;51.386;0.016;2023-07-20T20:27:30;25.60;54.40
25360;DHT22;13311;51.386;0.016;2023-07-20T20:32:30;25.60;55.50
25360;DHT22;13311;51.386;0.016;2023-07-20T20:37:34;25.50;55.40
25360;DHT22;13311;51.386;0.016;2023-07-20T20:42:36;25.50;56.30
25360;DHT22;13311;51.386;0.016;2023-07-20T20:47:37;25.30;56.20
25360;DHT22;13311;51.386;0.016;2023-07-20T20:52:40;25.40;56.60
25360;DHT22;13311;51.386;0.016;2023-07-20T20:57:41;25.10;56.40
25360;DHT22;13311;51.386;0.016;2023-07-20T21:02:43;25.00;56.80
25360;DHT22;13311;51.386;0.016;2023-07-20T21:07:43;24.70;57.30
25360;DHT22;13311;51.386;0.016;2023-07-20T21:12:44;24.50;57.70
25360;DHT22;13311;51.386;0.016;2023-07-20T21:17:45;24.40;58.00
25360;DHT22;13311;51.386;0.016;2023-07-20T21:22:45;24.30;58.10
25360;DHT22;13311;51.386;0.016;2023-07-20T21:27:46;24.10;58.70
25360;DHT22;13311;51.386;0.016;2023-07-20T21:32:47;23.90;58.90
25360;DHT22;13311;51.386;0.016;2023-07-20T21:37:49;23.90;59.10
25360;DHT22;13311;51.386;0.016;2023-07-20T21:42:53;23.90;59.30
25360;DHT22;13311;51.386;0.016;2023-07-20T21:47:54;23.70;59.00
25360;DHT22;13311;51.386;0.016;2023-07-20T21:52:54;23.50;59.80
25360;DHT22;13311;51.386;0.016;2023-07-20T21:57:55;23.40;60.50
25360;DHT22;13311;51.386;0.016;2023-07-20T22:02:56;23.20;61.00
25360;DHT22;13311;51.386;0.016;2023-07-20T22:07:57;23.00;61.80
25360;DHT22;13311;51.386;0.016;2023-07-20T22:12:59;22.90;62.30
25360;DHT22;13311;51.386;0.016;2023-07-20T22:18:00;22.80;62.40
25360;DHT22;13311;51.386;0.016;2023-07-20T22:23:01;22.70;62.50
25360;DHT22;13311;51.386;0.016;2023-07-20T22:28:02;22.60;62.60
25360;DHT22;13311;51.386;0.016;2023-07-20T22:33:03;22.50;63.00
25360;DHT22;13311;51.386;0.016;2023-07-20T22:38:04;22.40;63.20
25360;DHT22;13311;51.386;0.016;2023-07-20T22:43:05;22.30;63.30
25360;DHT22;13311;51.386;0.016;2023-07-20T22:48:06;22.30;63.80
25360;DHT22;13311;51.386;0.016;2023-07-20T22:53:07;22.30;63.90
25360;DHT22;13311;51.386;0.016;2023-07-20T22:58:07;22.20;64.00
25360;DHT22;13311;51.386;0.016;2023-07-20T23:03:08;22.20;64.00
25360;DHT22;13311;51.386;0.016;2023-07-20T23:08:09;22.10;64.30
25360;DHT22;13311;51.386;0.016;2023-07-20T23:13:10;22.10;64.70
25360;DHT22;13311;51.386;0.016;2023-07-20T23:18:10;22.00;65.20
25360;DHT22;13311;51.386;0.016;2023-07-20T23:23:11;21.90;65.60
25360;DHT22;13311;51.386;0.016;2023-07-20T23:28:12;21.80;65.80
25360;DHT22;13311;51.386;0.016;2023-07-20T23:33:13;21.80;65.80
25360;DHT22;13311;51.386;0.016;2023-07-20T23:38:14;21.90;66.10
25360;DHT22;13311;51.386;0.016;2023-07-20T23:43:14;21.80;66.60
25360;DHT22;13311;51.386;0.016;2023-07-20T23:48:15;21.80;66.90
25360;DHT22;13311;51.386;0.016;2023-07-20T23:53:16;21.70;67.10
25360;DHT22;13311;51.386;0.016;2023-07-20T23:58:16;21.70;67.20
